Terminal Aerodrome Forecast
Issued by NWS

Home | Current Version | Previous Version | Text Only | Print | Product List | Glossary On
Versions: 1 2 3 4 5 6 7 8 9 10 11 12 13 14 15 16 17 18
000
FTUS43 KPAH 281100
TAFCGI
TAF
KCGI 281134Z 2812/2912 24010KT 5SM -SHRA BR SCT020 OVC040
      TEMPO 2812/2815 2SM SHRA BR BKN020
     FM281500 30009KT P6SM SCT045 BKN080
     FM282100 34007KT P6SM SCT100
     FM290000 32002KT P6SM SCT150=

USA.gov is the U.S. government's official web portal to all federal, state and local government web resources and services.